Time;durP1;ratioP1;P1;durP2;ratioP2;P2;SDS_P1;SDS_P2;PMS_P1;PMS_P2;Temp;Humidity;BMP_temperature;BMP_pressure;BME280_temperature;BME280_humidity;BME280_pressure;Samples;Min_cycle;Max_cycle;Signal;HPM_P1;HPM_P2
2023/05/16 00:01:28;;;;;;;9.47;8.73;;;;;;;9.92;100.00;101242.38;5019151;28;20440;-39
2023/05/16 00:03:57;;;;;;;10.00;9.20;;;;;;;9.93;100.00;101224.56;5019956;28;20444;-42
2023/05/16 00:06:25;;;;;;;9.97;9.47;;;;;;;9.95;100.00;101238.53;5018694;28;20779;-40
2023/05/16 00:08:52;;;;;;;9.80;8.90;;;;;;;10.08;100.00;101228.09;5017267;28;20688;-41
2023/05/16 00:11:20;;;;;;;10.43;9.53;;;;;;;10.05;100.00;101238.28;5016268;28;20896;-39
2023/05/16 00:13:48;;;;;;;9.10;8.60;;;;;;;9.99;100.00;101234.50;5019319;28;20437;-40
2023/05/16 00:16:15;;;;;;;8.57;8.13;;;;;;;9.98;100.00;101231.00;5018213;28;20525;-40
2023/05/16 00:18:44;;;;;;;9.23;8.50;;;;;;;9.97;100.00;101242.66;5016931;28;20461;-43
2023/05/16 00:21:12;;;;;;;9.27;8.47;;;;;;;9.99;100.00;101237.16;5017505;28;20425;-42
2023/05/16 00:23:40;;;;;;;9.47;8.57;;;;;;;9.98;100.00;101247.00;5016544;28;20440;-43
2023/05/16 00:26:07;;;;;;;8.70;8.17;;;;;;;9.96;100.00;101253.50;5016478;28;20544;-42
2023/05/16 00:28:35;;;;;;;8.73;8.00;;;;;;;10.05;100.00;101246.28;5016956;28;21056;-40
2023/05/16 00:31:03;;;;;;;9.03;8.13;;;;;;;10.06;100.00;101240.78;5017705;28;20455;-40
2023/05/16 00:33:30;;;;;;;9.97;9.17;;;;;;;10.02;100.00;101250.13;5017528;28;20437;-42
2023/05/16 00:35:59;;;;;;;9.20;8.43;;;;;;;10.11;100.00;101237.56;5016043;28;20457;-41
2023/05/16 00:38:27;;;;;;;11.93;10.43;;;;;;;10.09;100.00;101239.59;5016704;28;20467;-44
2023/05/16 00:40:54;;;;;;;8.87;8.07;;;;;;;10.14;100.00;101243.38;5016617;28;20425;-39
2023/05/16 00:43:22;;;;;;;9.23;8.30;;;;;;;10.16;100.00;101243.19;5016718;28;20437;-42
2023/05/16 00:45:50;;;;;;;15.07;8.97;;;;;;;10.03;100.00;101249.13;5016768;28;20460;-41
2023/05/16 00:48:18;;;;;;;10.60;8.90;;;;;;;10.01;100.00;101246.63;5015734;28;20548;-43
2023/05/16 00:50:46;;;;;;;9.50;8.60;;;;;;;9.97;100.00;101247.19;5018989;28;20451;-44
2023/05/16 00:53:15;;;;;;;9.50;8.60;;;;;;;10.01;100.00;101253.78;5016681;28;20441;-41
2023/05/16 00:55:43;;;;;;;10.50;8.73;;;;;;;10.05;100.00;101244.44;5017084;28;20467;-40
2023/05/16 00:58:12;;;;;;;9.80;8.83;;;;;;;10.04;100.00;101253.44;5017459;28;20487;-40
2023/05/16 01:00:40;;;;;;;11.33;10.27;;;;;;;10.00;100.00;101247.63;5017981;28;20801;-41
2023/05/16 01:03:08;;;;;;;20.53;10.00;;;;;;;10.01;100.00;101240.47;5016192;28;20718;-40
2023/05/16 01:05:36;;;;;;;10.43;9.33;;;;;;;9.94;100.00;101239.56;5017155;28;20460;-43
2023/05/16 01:08:04;;;;;;;13.67;10.00;;;;;;;9.99;100.00;101248.66;5015801;28;20815;-40
2023/05/16 01:10:48;;;;;;;9.60;8.20;;;;;;;10.01;100.00;101246.63;5016174;28;20432;-44
2023/05/16 01:13:24;;;;;;;13.00;9.30;;;;;;;10.02;100.00;101242.13;5016546;28;20437;-41
2023/05/16 01:16:00;;;;;;;11.00;8.27;;;;;;;10.04;100.00;101240.09;5015789;28;21089;-40
2023/05/16 01:18:33;;;;;;;9.30;8.40;;;;;;;10.00;100.00;101247.63;5015651;28;20495;-44
2023/05/16 01:21:07;;;;;;;13.20;7.87;;;;;;;10.02;100.00;101234.16;5017480;28;20448;-45
2023/05/16 01:23:47;;;;;;;10.00;8.97;;;;;;;10.06;100.00;101237.28;5016392;28;20862;-45
2023/05/16 01:26:21;;;;;;;10.17;9.00;;;;;;;9.95;100.00;101231.38;5016583;28;20448;-43
2023/05/16 01:28:50;;;;;;;12.37;8.27;;;;;;;9.99;100.00;101234.50;5015567;28;20476;-42
2023/05/16 01:31:18;;;;;;;11.00;9.60;;;;;;;9.97;100.00;101239.19;5018429;28;20440;-42
2023/05/16 01:33:47;;;;;;;9.20;8.40;;;;;;;9.97;100.00;101245.31;5015482;28;20437;-48
2023/05/16 01:36:24;;;;;;;11.50;9.00;;;;;;;10.07;100.00;101250.41;5017709;28;20457;-44
2023/05/16 01:39:02;;;;;;;14.23;9.20;;;;;;;9.98;100.00;101259.47;5016421;28;20463;-42
2023/05/16 01:41:40;;;;;;;9.50;8.27;;;;;;;9.99;100.00;101253.16;5016139;28;21092;-40
2023/05/16 01:44:16;;;;;;;12.03;8.13;;;;;;;10.00;100.00;101257.50;5016230;28;20486;-43
2023/05/16 01:46:47;;;;;;;9.23;8.33;;;;;;;10.01;100.00;101253.78;5016284;28;20428;-40
2023/05/16 01:49:20;;;;;;;19.83;9.53;;;;;;;10.07;100.00;101258.41;5017078;28;20488;-40
2023/05/16 01:51:52;;;;;;;12.77;8.97;;;;;;;10.06;100.00;101255.94;5019151;28;20429;-41
2023/05/16 01:54:21;;;;;;;12.37;9.23;;;;;;;10.00;100.00;101254.81;5018324;28;20456;-40
2023/05/16 01:56:53;;;;;;;9.10;8.03;;;;;;;10.00;100.00;101252.97;5021539;28;20432;-40
2023/05/16 01:59:22;;;;;;;9.87;8.40;;;;;;;10.05;100.00;101255.09;5021975;28;20520;-40
2023/05/16 02:01:49;;;;;;;18.57;8.67;;;;;;;9.99;100.00;101251.31;5022298;28;20436;-42
2023/05/16 02:04:17;;;;;;;7.97;7.10;;;;;;;10.01;100.00;101253.78;5021442;28;20459;-41
2023/05/16 02:06:45;;;;;;;16.37;8.40;;;;;;;10.02;100.00;101253.63;5020641;28;20440;-44
2023/05/16 02:09:13;;;;;;;11.53;8.33;;;;;;;10.04;100.00;101253.44;5019560;28;20855;-40
2023/05/16 02:11:41;;;;;;;21.90;8.33;;;;;;;10.03;100.00;101263.25;5019625;28;20440;-42
2023/05/16 02:14:10;;;;;;;13.77;8.50;;;;;;;10.00;100.00;101260.16;5019912;28;20483;-41
2023/05/16 02:16:38;;;;;;;13.57;8.97;;;;;;;9.98;100.00;101254.16;5020889;28;20425;-40
2023/05/16 02:19:05;;;;;;;10.27;8.10;;;;;;;10.04;100.00;101256.09;5021497;28;20468;-40
2023/05/16 02:21:33;;;;;;;8.80;7.97;;;;;;;9.98;100.00;101260.31;5019945;28;20834;-42
2023/05/16 02:24:01;;;;;;;12.90;8.13;;;;;;;9.89;100.00;101260.56;5020530;28;21053;-41
2023/05/16 02:26:28;;;;;;;18.13;9.03;;;;;;;9.86;100.00;101261.75;5017360;28;20659;-39
2023/05/16 02:28:56;;;;;;;11.70;8.33;;;;;;;9.96;100.00;101272.16;5019544;28;20479;-48
2023/05/16 02:31:30;;;;;;;16.00;9.13;;;;;;;9.91;100.00;101270.06;5020547;28;20436;-43
2023/05/16 02:33:58;;;;;;;15.27;9.07;;;;;;;9.90;100.00;101272.88;5020934;28;20459;-43
2023/05/16 02:36:26;;;;;;;14.00;7.83;;;;;;;9.86;100.00;101266.25;5020814;28;20523;-45
2023/05/16 02:38:54;;;;;;;12.97;8.03;;;;;;;9.88;100.00;101272.25;5020213;28;20507;-40
2023/05/16 02:41:22;;;;;;;20.40;8.77;;;;;;;9.87;100.00;101278.56;5020397;28;20432;-40
2023/05/16 02:43:49;;;;;;;13.73;8.10;;;;;;;9.82;100.00;101280.94;5019060;28;20428;-41
2023/05/16 02:46:24;;;;;;;15.63;9.40;;;;;;;9.76;100.00;101273.66;5020067;28;20455;-42
2023/05/16 02:48:54;;;;;;;17.07;9.27;;;;;;;9.77;100.00;101268.16;5021313;28;20507;-40
2023/05/16 02:51:23;;;;;;;12.87;8.60;;;;;;;9.81;100.00;101274.78;5019765;28;20421;-40
2023/05/16 02:53:51;;;;;;;12.77;9.10;;;;;;;9.76;100.00;101257.69;5020152;28;20445;-42
2023/05/16 02:56:20;;;;;;;11.50;8.40;;;;;;;9.72;100.00;101264.38;5020327;28;20453;-44
2023/05/16 02:58:49;;;;;;;14.10;9.53;;;;;;;9.67;100.00;101269.41;5020387;28;20465;-44
2023/05/16 03:01:17;;;;;;;15.40;8.80;;;;;;;9.65;100.00;101260.75;5018885;28;20859;-42
2023/05/16 03:03:45;;;;;;;16.67;8.40;;;;;;;9.60;100.00;101263.97;5020893;28;20487;-43
2023/05/16 03:06:15;;;;;;;11.43;9.43;;;;;;;9.62;100.00;101269.94;5019109;28;20463;-40
2023/05/16 03:08:42;;;;;;;11.93;8.60;;;;;;;9.64;100.00;101275.91;5018155;28;20552;-44
2023/05/16 03:11:10;;;;;;;11.50;8.60;;;;;;;9.67;100.00;101274.72;5020211;28;20433;-45
2023/05/16 03:13:38;;;;;;;18.70;10.00;;;;;;;9.66;100.00;101275.72;5020470;28;20469;-40
2023/05/16 03:16:06;;;;;;;14.20;9.27;;;;;;;9.61;100.00;101272.78;5019170;28;20441;-44
2023/05/16 03:18:33;;;;;;;14.80;8.77;;;;;;;9.53;100.00;101275.50;5018966;28;21038;-44
2023/05/16 03:21:02;;;;;;;14.73;9.57;;;;;;;9.59;100.00;101288.13;5021885;28;20433;-43
2023/05/16 03:23:31;;;;;;;15.10;9.50;;;;;;;9.57;100.00;101287.44;5018078;28;20815;-42
2023/05/16 03:25:58;;;;;;;15.50;9.37;;;;;;;9.52;100.00;101282.66;5020376;28;20460;-41
2023/05/16 03:28:27;;;;;;;11.90;9.40;;;;;;;9.55;100.00;101295.63;5019130;28;20540;-42
2023/05/16 03:30:54;;;;;;;19.70;10.37;;;;;;;9.62;100.00;101287.72;5020015;28;20476;-42
2023/05/16 03:33:22;;;;;;;13.53;9.83;;;;;;;9.57;100.00;101287.44;5021486;28;20429;-40
2023/05/16 03:35:50;;;;;;;18.60;11.30;;;;;;;9.61;100.00;101294.91;5020433;28;20449;-43
2023/05/16 03:38:18;;;;;;;17.83;9.20;;;;;;;9.78;100.00;101288.47;5021403;28;20464;-40
2023/05/16 03:40:47;;;;;;;17.53;11.03;;;;;;;9.73;100.00;101290.00;5021028;28;20437;-45
2023/05/16 03:43:15;;;;;;;20.10;8.83;;;;;;;9.78;100.00;101285.78;5019226;28;20436;-41
2023/05/16 03:45:43;;;;;;;14.77;8.27;;;;;;;9.74;100.00;101289.81;5020145;28;20453;-44
2023/05/16 03:48:11;;;;;;;15.60;8.47;;;;;;;9.71;100.00;101292.00;5018575;28;20515;-41
2023/05/16 03:50:38;;;;;;;18.00;9.07;;;;;;;9.80;100.00;101296.25;5017283;28;20464;-41
2023/05/16 03:53:07;;;;;;;19.60;8.53;;;;;;;9.70;100.00;101291.19;5019722;28;20549;-42
2023/05/16 03:55:35;;;;;;;11.17;8.63;;;;;;;9.72;100.00;101291.84;5020414;28;20524;-43
2023/05/16 03:58:04;;;;;;;15.90;8.80;;;;;;;9.61;100.00;101294.09;5019533;28;20468;-42
2023/05/16 04:00:33;;;;;;;12.57;8.73;;;;;;;9.68;100.00;101303.00;5019623;28;21006;-40
2023/05/16 04:03:01;;;;;;;18.67;8.30;;;;;;;9.60;100.00;101305.72;5019691;28;20531;-41
2023/05/16 04:05:29;;;;;;;14.70;8.40;;;;;;;9.71;100.00;101311.47;5018990;28;20539;-42
2023/05/16 04:07:57;;;;;;;15.80;8.97;;;;;;;9.71;100.00;101314.13;5018589;28;20488;-43
2023/05/16 04:10:24;;;;;;;13.17;8.93;;;;;;;9.66;100.00;101305.84;5020594;28;20483;-44
2023/05/16 04:12:52;;;;;;;9.23;7.57;;;;;;;9.53;100.00;101315.44;5017376;28;20437;-41
2023/05/16 04:15:21;;;;;;;13.53;7.27;;;;;;;9.60;100.00;101306.56;5019432;28;20970;-47
2023/05/16 04:17:49;;;;;;;13.80;8.77;;;;;;;9.62;100.00;101315.19;5017778;28;20453;-42
2023/05/16 04:20:17;;;;;;;12.23;7.50;;;;;;;9.55;100.00;101310.75;5019179;28;20492;-42
2023/05/16 04:22:44;;;;;;;14.67;8.00;;;;;;;9.60;100.00;101311.88;5019077;28;20519;-41
2023/05/16 04:25:13;;;;;;;13.17;7.67;;;;;;;9.68;100.00;101303.00;5020067;28;20465;-42
2023/05/16 04:27:40;;;;;;;10.40;8.20;;;;;;;9.70;100.00;101309.00;5016522;28;20472;-44
2023/05/16 04:30:10;;;;;;;14.50;9.90;;;;;;;9.72;100.00;101317.63;5019903;28;20475;-42
2023/05/16 04:32:39;;;;;;;10.37;9.00;;;;;;;9.77;100.00;101321.41;5019188;28;20433;-42
2023/05/16 04:35:07;;;;;;;16.83;8.60;;;;;;;9.78;100.00;101325.75;5020465;28;20536;-43
2023/05/16 04:37:35;;;;;;;13.90;8.80;;;;;;;9.77;100.00;101329.41;5019323;28;20457;-44
2023/05/16 04:40:03;;;;;;;11.87;7.90;;;;;;;9.83;100.00;101323.38;5019914;28;20460;-42
2023/05/16 04:42:31;;;;;;;11.50;8.20;;;;;;;9.82;100.00;101334.22;5019155;28;20950;-41
2023/05/16 04:44:59;;;;;;;11.37;8.70;;;;;;;9.84;100.00;101327.69;5019270;28;20460;-43
2023/05/16 04:47:26;;;;;;;10.83;7.47;;;;;;;9.90;100.00;101326.16;5019123;28;20870;-43
2023/05/16 04:49:55;;;;;;;8.93;7.17;;;;;;;10.12;100.00;101333.31;5019986;28;21077;-41
2023/05/16 04:52:23;;;;;;;14.30;8.87;;;;;;;10.07;100.00;101337.50;5019536;28;20487;-42
2023/05/16 04:54:51;;;;;;;15.37;8.57;;;;;;;10.02;100.00;101327.41;5019037;28;20457;-42
2023/05/16 04:57:19;;;;;;;9.90;7.43;;;;;;;10.14;100.00;101330.50;5019247;28;20453;-42
2023/05/16 04:59:47;;;;;;;10.77;6.70;;;;;;;10.19;100.00;101331.63;5019698;28;20483;-41
2023/05/16 05:02:14;;;;;;;14.10;7.10;;;;;;;10.20;100.00;101345.78;5018875;28;20459;-40
2023/05/16 05:04:42;;;;;;;12.87;8.90;;;;;;;10.31;100.00;101340.84;5019064;28;20540;-40
2023/05/16 05:07:11;;;;;;;16.13;8.97;;;;;;;10.17;100.00;101336.31;5018162;28;20511;-43
2023/05/16 05:09:39;;;;;;;11.77;6.97;;;;;;;10.55;100.00;101345.94;5017388;28;20433;-39
2023/05/16 05:12:08;;;;;;;9.50;6.97;;;;;;;10.72;100.00;101338.59;5018949;28;20429;-42
2023/05/16 05:14:35;;;;;;;12.40;7.07;;;;;;;11.73;100.00;101338.72;5017924;28;20781;-42
2023/05/16 05:17:03;;;;;;;7.83;6.13;;;;;;;12.93;100.00;101328.78;5017264;28;20432;-40
2023/05/16 05:19:31;;;;;;;13.20;8.23;;;;;;;13.36;100.00;101327.56;5018684;28;20532;-42
2023/05/16 05:21:59;;;;;;;10.47;6.90;;;;;;;13.02;100.00;101328.38;5017753;28;20464;-40
2023/05/16 05:24:28;;;;;;;11.03;6.10;;;;;;;12.75;100.00;101338.13;5019090;28;20454;-42
2023/05/16 05:26:56;;;;;;;14.00;6.50;;;;;;;12.54;100.00;101338.22;5018304;28;20441;-42
2023/05/16 05:29:23;;;;;;;9.07;5.93;;;;;;;12.20;100.00;101338.13;5016860;28;20422;-43
2023/05/16 05:31:51;;;;;;;10.13;6.10;;;;;;;11.94;100.00;101337.88;5018589;28;20477;-41
2023/05/16 05:34:19;;;;;;;16.23;6.50;;;;;;;11.98;100.00;101341.81;5017321;28;20457;-41
2023/05/16 05:36:46;;;;;;;10.70;6.23;;;;;;;11.96;100.00;101343.84;5019041;28;20433;-40
2023/05/16 05:39:15;;;;;;;19.27;5.70;;;;;;;12.02;100.00;101343.94;5057816;28;20466;-42
2023/05/16 05:41:45;;;;;;;11.23;6.67;;;;;;;11.80;100.00;101347.59;5058137;28;20427;-42
2023/05/16 05:44:12;;;;;;;10.77;6.73;;;;;;;11.63;100.00;101346.16;5057290;28;20608;-40
2023/05/16 05:46:40;;;;;;;11.70;5.77;;;;;;;11.25;100.00;101345.50;5058391;28;20459;-44
2023/05/16 05:49:08;;;;;;;12.60;6.40;;;;;;;11.56;100.00;101346.06;5056412;28;20475;-40
2023/05/16 05:51:36;;;;;;;10.83;6.07;;;;;;;12.86;100.00;101344.78;5056133;28;20476;-40
2023/05/16 05:54:04;;;;;;;10.13;5.73;;;;;;;13.55;100.00;101342.88;5057988;28;20458;-42
2023/05/16 05:56:31;;;;;;;14.80;5.97;;;;;;;14.01;100.00;101347.53;5057964;28;20427;-42
2023/05/16 05:59:00;;;;;;;14.17;6.07;;;;;;;13.97;100.00;101340.91;5057909;28;20463;-41
2023/05/16 06:01:28;;;;;;;6.50;5.00;;;;;;;13.80;100.00;101338.59;5057526;28;20438;-45
2023/05/16 06:03:56;;;;;;;11.40;5.43;;;;;;;13.89;100.00;101339.25;5055878;28;20477;-42
2023/05/16 06:06:28;;;;;;;10.00;5.27;;;;;;;14.26;100.00;101349.41;5056296;28;20427;-42
2023/05/16 06:08:55;;;;;;;9.40;5.80;;;;;;;14.87;99.17;101341.94;5053239;28;21070;-41
2023/05/16 06:11:24;;;;;;;8.17;5.10;;;;;;;14.74;97.83;101343.81;5057228;28;20477;-43
2023/05/16 06:13:51;;;;;;;8.17;4.60;;;;;;;13.61;100.00;101347.44;5055416;28;20519;-40
2023/05/16 06:16:24;;;;;;;7.63;4.80;;;;;;;13.36;100.00;101357.03;5056038;28;20438;-44
2023/05/16 06:18:52;;;;;;;9.17;5.50;;;;;;;14.12;100.00;101338.88;5056286;28;20454;-42
2023/05/16 06:21:19;;;;;;;8.07;4.20;;;;;;;14.48;96.52;101347.38;5056162;28;20430;-42
2023/05/16 06:23:47;;;;;;;8.37;4.50;;;;;;;14.33;100.00;101333.34;5056069;28;20441;-41
2023/05/16 06:26:15;;;;;;;10.27;4.90;;;;;;;14.04;100.00;101331.00;5053984;28;20458;-42
2023/05/16 06:28:43;;;;;;;9.73;4.73;;;;;;;13.43;100.00;101340.97;5057143;28;20984;-42
2023/05/16 06:31:11;;;;;;;9.43;4.37;;;;;;;12.99;100.00;101349.41;5056612;28;20493;-40
2023/05/16 06:33:40;;;;;;;10.47;4.70;;;;;;;12.37;100.00;101354.72;5057114;28;20797;-42
2023/05/16 06:36:08;;;;;;;9.67;5.20;;;;;;;12.30;100.00;101357.34;5057960;28;20451;-43
2023/05/16 06:38:35;;;;;;;11.90;5.60;;;;;;;13.09;100.00;101366.78;5057943;28;20486;-43
2023/05/16 06:41:03;;;;;;;7.30;4.73;;;;;;;13.86;100.00;101355.72;5057363;28;20982;-41
2023/05/16 06:43:31;;;;;;;11.33;5.10;;;;;;;14.45;100.00;101355.84;5060820;28;20485;-42
2023/05/16 06:45:58;;;;;;;8.20;4.93;;;;;;;14.88;97.02;101359.72;5061879;28;20479;-41
2023/05/16 06:48:26;;;;;;;9.87;4.83;;;;;;;15.18;93.91;101351.97;5059622;28;20463;-41
2023/05/16 06:50:56;;;;;;;6.20;4.40;;;;;;;15.44;89.12;101351.06;5061425;28;20632;-41
2023/05/16 06:53:23;;;;;;;8.77;4.00;;;;;;;15.29;83.93;101366.63;5059234;28;20521;-41
2023/05/16 06:55:51;;;;;;;9.63;5.10;;;;;;;15.68;86.59;101358.41;5061278;28;20453;-42
2023/05/16 06:58:19;;;;;;;9.50;5.90;;;;;;;15.90;78.01;101366.97;5059912;28;20481;-41
2023/05/16 07:00:49;;;;;;;7.70;4.40;;;;;;;15.73;83.21;101358.59;5061223;28;20423;-42
2023/05/16 07:03:17;;;;;;;10.03;5.00;;;;;;;15.41;88.23;101362.25;5058805;28;20952;-43
2023/05/16 07:05:45;;;;;;;7.77;4.23;;;;;;;15.95;86.61;101365.28;5059022;28;20447;-40
2023/05/16 07:08:14;;;;;;;9.47;5.40;;;;;;;15.12;79.52;101352.81;5061253;28;20486;-44
2023/05/16 07:10:42;;;;;;;11.10;4.90;;;;;;;14.95;85.04;101362.38;5060842;28;20867;-41
2023/05/16 07:13:09;;;;;;;8.33;5.00;;;;;;;15.06;84.41;101368.94;5059601;28;20453;-40
2023/05/16 07:15:37;;;;;;;12.50;4.43;;;;;;;15.44;80.08;101370.69;5057837;28;20478;-41
2023/05/16 07:18:05;;;;;;;5.87;4.80;;;;;;;15.64;75.60;101361.75;5059462;28;20458;-41
2023/05/16 07:20:33;;;;;;;5.70;4.70;;;;;;;16.16;78.51;101363.31;5059499;28;20836;-43
2023/05/16 07:23:00;;;;;;;7.60;4.90;;;;;;;16.08;75.14;101364.38;5057939;28;20430;-41
2023/05/16 07:25:29;;;;;;;11.27;4.73;;;;;;;15.69;75.70;101353.84;5059460;28;20537;-41
2023/05/16 07:27:57;;;;;;;8.83;4.63;;;;;;;16.25;74.31;101365.50;5060068;28;20462;-44
2023/05/16 07:30:25;;;;;;;12.47;6.30;;;;;;;16.36;72.83;101355.91;5057716;28;20452;-42
2023/05/16 07:32:53;;;;;;;7.23;4.53;;;;;;;16.03;76.49;101373.13;5059258;28;20474;-41
2023/05/16 07:35:20;;;;;;;9.23;5.10;;;;;;;15.49;85.71;101370.09;5057558;28;20455;-47
2023/05/16 07:37:48;;;;;;;10.27;6.03;;;;;;;14.83;85.60;101377.47;5054117;28;20486;-46
2023/05/16 07:40:17;;;;;;;11.23;5.17;;;;;;;14.39;83.24;101376.25;5054140;28;20467;-43
2023/05/16 07:42:46;;;;;;;7.17;4.70;;;;;;;13.68;94.98;101375.06;5052631;28;20778;-41
2023/05/16 07:45:13;;;;;;;9.00;4.50;;;;;;;12.99;99.94;101376.97;5051487;28;20455;-41
2023/05/16 07:47:41;;;;;;;8.50;4.40;;;;;;;12.91;100.00;101390.53;5053348;28;20950;-44
2023/05/16 07:50:10;;;;;;;10.13;4.47;;;;;;;12.99;100.00;101382.34;5052594;28;20474;-44
2023/05/16 07:52:38;;;;;;;11.97;5.40;;;;;;;13.58;100.00;101392.56;5051987;28;20471;-40
2023/05/16 07:55:07;;;;;;;14.73;5.20;;;;;;;14.22;100.00;101385.72;5053475;28;20529;-43
2023/05/16 07:57:35;;;;;;;7.33;5.43;;;;;;;14.46;90.59;101378.94;5053405;28;20463;-41
2023/05/16 08:00:05;;;;;;;7.20;5.30;;;;;;;14.37;96.82;101385.53;5052516;28;20440;-41
2023/05/16 08:02:32;;;;;;;12.43;5.03;;;;;;;14.57;86.67;101390.94;5054077;28;20812;-43
2023/05/16 08:05:00;;;;;;;10.80;5.43;;;;;;;14.49;92.80;101397.31;5052103;28;20490;-42
2023/05/16 08:07:28;;;;;;;11.33;5.80;;;;;;;14.38;92.36;101389.88;5051797;28;20462;-42
2023/05/16 08:09:56;;;;;;;11.07;5.93;;;;;;;13.68;91.92;101396.50;5052713;28;20471;-43
2023/05/16 08:12:24;;;;;;;9.00;5.03;;;;;;;12.61;98.04;101410.47;5051255;28;20532;-41
2023/05/16 08:14:51;;;;;;;9.63;6.13;;;;;;;12.46;100.00;101397.19;5052198;28;20508;-42
2023/05/16 08:17:21;;;;;;;9.10;4.93;;;;;;;12.82;100.00;101396.22;5052017;28;20863;-42
2023/05/16 08:19:48;;;;;;;9.93;5.30;;;;;;;13.59;100.00;101400.38;5053434;28;20435;-41
2023/05/16 08:22:16;;;;;;;10.90;5.30;;;;;;;13.98;100.00;101399.69;5053942;28;20454;-41
2023/05/16 08:24:44;;;;;;;8.80;5.07;;;;;;;14.09;96.18;101391.06;5053286;28;20479;-43
2023/05/16 08:27:12;;;;;;;6.60;5.17;;;;;;;13.99;88.51;101412.09;5049669;28;20546;-43
2023/05/16 08:29:40;;;;;;;6.70;4.07;;;;;;;13.82;88.08;101400.91;5052911;28;20515;-44
2023/05/16 08:32:09;;;;;;;10.20;4.70;;;;;;;13.43;90.20;101400.75;5052272;28;20539;-42
2023/05/16 08:34:38;;;;;;;8.50;4.30;;;;;;;13.51;91.82;101405.09;5051789;28;20455;-40
2023/05/16 08:37:05;;;;;;;12.20;5.40;;;;;;;13.04;95.81;101408.53;5051294;28;20791;-43
2023/05/16 08:39:33;;;;;;;9.53;6.47;;;;;;;12.60;99.98;101406.97;5051805;28;20945;-41
2023/05/16 08:42:01;;;;;;;9.33;5.17;;;;;;;12.79;100.00;101402.78;5053103;28;20507;-41
2023/05/16 08:44:29;;;;;;;9.63;5.63;;;;;;;13.43;100.00;101399.91;5053770;28;20542;-41
2023/05/16 08:46:59;;;;;;;11.30;6.00;;;;;;;13.75;99.72;101400.06;5052715;28;20427;-42
2023/05/16 08:49:29;;;;;;;9.00;5.37;;;;;;;13.26;100.00;101394.88;5054638;28;20435;-42
2023/05/16 08:52:01;;;;;;;14.10;5.73;;;;;;;12.46;100.00;101413.22;5051936;28;20501;-47
2023/05/16 08:54:30;;;;;;;13.43;5.57;;;;;;;11.67;100.00;101422.25;5052086;28;20474;-42
2023/05/16 08:56:59;;;;;;;8.73;4.87;;;;;;;11.48;100.00;101437.00;5052946;28;20489;-42
2023/05/16 08:59:27;;;;;;;8.73;5.17;;;;;;;11.59;100.00;101446.38;5053686;28;21044;-42
2023/05/16 09:01:55;;;;;;;6.97;5.40;;;;;;;11.55;100.00;101437.09;5055275;28;20431;-41
2023/05/16 09:04:24;;;;;;;13.20;5.87;;;;;;;11.75;100.00;101434.69;5051884;28;21025;-44
2023/05/16 09:06:52;;;;;;;7.07;5.00;;;;;;;12.34;100.00;101433.50;5055470;28;20491;-47
2023/05/16 09:09:21;;;;;;;8.23;5.30;;;;;;;12.67;100.00;101426.59;5053750;28;20427;-45
2023/05/16 09:11:49;;;;;;;12.20;5.63;;;;;;;13.30;100.00;101416.75;5054336;28;20502;-47
2023/05/16 09:14:16;;;;;;;11.00;5.23;;;;;;;13.52;100.00;101412.97;5054377;28;20427;-41
2023/05/16 09:16:45;;;;;;;13.03;4.63;;;;;;;13.86;100.00;101423.59;5054725;28;20435;-47
2023/05/16 09:19:16;;;;;;;9.83;5.77;;;;;;;14.43;100.00;101414.25;5053451;28;20508;-42
2023/05/16 09:21:44;;;;;;;13.93;4.70;;;;;;;14.78;86.82;101410.31;5054513;28;20446;-42
2023/05/16 09:24:12;;;;;;;10.03;5.00;;;;;;;15.17;84.47;101400.56;5053633;28;20435;-42
2023/05/16 09:26:44;;;;;;;11.40;5.80;;;;;;;15.90;81.99;101401.94;5051968;28;20526;-43
2023/05/16 09:29:12;;;;;;;10.90;5.50;;;;;;;15.61;80.06;101414.09;5052314;28;20466;-44
2023/05/16 09:31:40;;;;;;;9.77;5.23;;;;;;;15.31;83.09;101410.22;5051316;28;20851;-41
2023/05/16 09:34:10;;;;;;;14.70;4.90;;;;;;;14.84;84.22;101416.72;5051682;28;20471;-44
2023/05/16 09:36:37;;;;;;;9.60;5.53;;;;;;;14.01;88.80;101407.34;5052190;28;20435;-41
2023/05/16 09:39:07;;;;;;;10.50;5.03;;;;;;;13.17;92.55;101414.00;5052527;28;20879;-45
2023/05/16 09:41:35;;;;;;;12.73;6.00;;;;;;;12.77;100.00;101416.38;5054013;28;20832;-41
2023/05/16 09:44:06;;;;;;;16.93;6.33;;;;;;;12.46;100.00;101415.91;5053025;28;20474;-42
2023/05/16 09:46:35;;;;;;;5.87;5.33;;;;;;;12.38;100.00;101432.09;5052683;28;20477;-40
2023/05/16 09:49:03;;;;;;;18.37;6.27;;;;;;;12.69;100.00;101424.53;5052912;28;20459;-41
2023/05/16 09:51:30;;;;;;;9.20;5.40;;;;;;;12.84;100.00;101415.59;5052317;28;20485;-40
2023/05/16 09:53:59;;;;;;;11.73;6.07;;;;;;;12.98;100.00;101420.84;5052936;28;21003;-45
2023/05/16 09:56:28;;;;;;;10.50;5.00;;;;;;;12.88;100.00;101432.91;5054885;28;20442;-43
2023/05/16 09:58:56;;;;;;;17.97;5.83;;;;;;;13.78;100.00;101429.13;5054819;28;20494;-43
2023/05/16 10:01:25;;;;;;;9.17;5.50;;;;;;;13.85;100.00;101429.16;5053023;28;20438;-45
2023/05/16 10:03:53;;;;;;;14.67;5.43;;;;;;;14.23;100.00;101426.78;5054463;28;20434;-43
2023/05/16 10:06:21;;;;;;;7.67;5.70;;;;;;;14.68;98.52;101434.09;5052200;28;20556;-40
2023/05/16 10:08:50;;;;;;;12.37;6.37;;;;;;;14.53;100.00;101424.56;5050680;28;20791;-41
2023/05/16 10:11:19;;;;;;;11.13;6.00;;;;;;;14.73;95.14;101426.22;5051697;28;20986;-42
2023/05/16 10:13:51;;;;;;;9.93;5.40;;;;;;;14.54;100.00;101432.44;5054044;28;20557;-41
2023/05/16 10:16:22;;;;;;;10.97;6.50;;;;;;;14.61;96.46;101422.50;5057955;28;20921;-44
2023/05/16 10:18:52;;;;;;;22.63;7.23;;;;;;;13.49;100.00;101437.47;5056172;28;20535;-46
2023/05/16 10:21:23;;;;;;;9.90;7.13;;;;;;;12.29;100.00;101427.91;5057656;28;20431;-45
2023/05/16 10:23:53;;;;;;;9.93;6.20;;;;;;;11.74;100.00;101436.53;5056211;28;20423;-41
2023/05/16 10:26:21;;;;;;;13.27;7.00;;;;;;;11.55;100.00;101440.59;5054591;28;20545;-43
2023/05/16 10:28:50;;;;;;;23.67;7.57;;;;;;;11.76;100.00;101439.03;5056568;28;20494;-43
2023/05/16 10:31:18;;;;;;;9.80;5.90;;;;;;;12.10;100.00;101440.03;5057661;28;21008;-41
2023/05/16 10:33:47;;;;;;;11.40;6.53;;;;;;;12.06;100.00;101427.25;5059071;28;20471;-44
2023/05/16 10:36:17;;;;;;;14.33;7.03;;;;;;;12.08;100.00;101420.69;5056495;28;20782;-40
2023/05/16 10:38:46;;;;;;;14.43;5.70;;;;;;;12.48;100.00;101421.91;5056342;28;20458;-45
2023/05/16 10:41:14;;;;;;;11.33;5.20;;;;;;;12.60;100.00;101422.22;5056348;28;20437;-43
2023/05/16 10:43:45;;;;;;;7.90;6.10;;;;;;;13.10;100.00;101435.38;5057499;28;20851;-47
2023/05/16 10:46:14;;;;;;;8.70;5.57;;;;;;;12.85;100.00;101442.16;5056468;28;20443;-43
2023/05/16 10:48:42;;;;;;;12.90;6.30;;;;;;;12.71;100.00;101440.41;5056470;28;20820;-47
2023/05/16 10:51:35;;;;;;;9.33;5.60;;;;;;;12.24;100.00;101440.19;5057391;28;20462;-43
2023/05/16 10:54:09;;;;;;;8.03;4.40;;;;;;;12.65;100.00;101441.19;5056286;28;21282;-40
2023/05/16 10:56:37;;;;;;;11.47;5.13;;;;;;;12.74;100.00;101440.84;5057730;28;20801;-42
2023/05/16 10:59:04;;;;;;;8.17;5.60;;;;;;;13.29;100.00;101436.50;5056734;28;21011;-41
2023/05/16 11:01:34;;;;;;;7.87;4.90;;;;;;;13.42;97.48;101423.19;5055913;28;20431;-43
2023/05/16 11:04:07;;;;;;;9.10;5.57;;;;;;;13.69;100.00;101433.03;5056235;28;20427;-41
2023/05/16 11:06:45;;;;;;;12.80;5.37;;;;;;;13.53;100.00;101430.66;5055155;28;20929;-41
2023/05/16 11:09:22;;;;;;;8.80;5.60;;;;;;;13.05;100.00;101451.16;5053906;28;20439;-42
2023/05/16 11:12:01;;;;;;;10.87;5.43;;;;;;;12.77;100.00;101443.16;5056286;28;20438;-44
2023/05/16 11:14:37;;;;;;;8.40;6.00;;;;;;;13.07;100.00;101450.97;5056120;28;20548;-43
2023/05/16 11:17:08;;;;;;;9.83;5.50;;;;;;;13.27;100.00;101450.13;5055161;28;20426;-44
2023/05/16 11:19:41;;;;;;;5.80;4.80;;;;;;;13.57;100.00;101441.81;5056518;28;20431;-41
2023/05/16 11:22:28;;;;;;;10.23;5.30;;;;;;;13.80;100.00;101450.38;5056205;28;20435;-42
2023/05/16 11:24:59;;;;;;;9.30;5.23;;;;;;;14.10;100.00;101450.88;5056992;28;20505;-44